createdAt,value
2023-04-27T00:00:11.686Z,4.47
2023-04-27T00:02:40.112Z,4.33
2023-04-27T00:05:08.752Z,4.43
2023-04-27T00:07:37.073Z,4.50
2023-04-27T00:10:05.413Z,4.30
2023-04-27T00:12:34.955Z,4.20
2023-04-27T00:15:03.226Z,4.60
2023-04-27T00:17:32.166Z,4.50
2023-04-27T00:20:00.642Z,4.57
2023-04-27T00:22:28.881Z,4.87
2023-04-27T00:24:57.023Z,5.10
2023-04-27T00:27:25.162Z,4.83
2023-04-27T00:29:54.684Z,4.87
2023-04-27T00:32:22.902Z,4.50
2023-04-27T00:34:51.121Z,5.60
2023-04-27T00:37:19.603Z,4.87
2023-04-27T00:39:47.816Z,4.87
2023-04-27T00:42:19.474Z,5.47
2023-04-27T00:44:47.634Z,5.27
2023-04-27T00:47:17.868Z,5.60
2023-04-27T00:49:46.171Z,5.73
2023-04-27T00:52:14.291Z,5.87
2023-04-27T00:54:42.493Z,6.13
2023-04-27T00:57:10.703Z,5.60
2023-04-27T00:59:39.072Z,5.93
2023-04-27T01:02:07.416Z,5.33
2023-04-27T01:04:37.312Z,5.70
2023-04-27T01:07:05.620Z,5.57
2023-04-27T01:09:33.785Z,5.70
2023-04-27T01:12:03.192Z,6.00
2023-04-27T01:14:31.311Z,5.97
2023-04-27T01:16:59.639Z,6.20
2023-04-27T01:19:28.697Z,6.20
2023-04-27T01:21:58.154Z,5.90
2023-04-27T01:24:27.777Z,5.83
2023-04-27T01:26:55.955Z,5.70
2023-04-27T01:29:24.059Z,6.70
2023-04-27T01:31:52.146Z,6.40
2023-04-27T01:34:20.631Z,5.80
2023-04-27T01:36:48.796Z,6.53
2023-04-27T01:39:16.972Z,5.60
2023-04-27T01:41:46.445Z,5.83
2023-04-27T01:44:14.575Z,5.83
2023-04-27T01:46:42.836Z,6.00
2023-04-27T01:49:11.201Z,6.00
2023-04-27T01:51:39.419Z,5.77
2023-04-27T01:54:07.606Z,5.93
2023-04-27T01:56:35.772Z,5.53
2023-04-27T01:59:05.237Z,6.20
2023-04-27T02:01:33.428Z,6.27
2023-04-27T02:04:01.875Z,5.50
2023-04-27T02:06:30.113Z,5.40
2023-04-27T02:08:58.276Z,5.80
2023-04-27T02:11:27.414Z,5.83
2023-04-27T02:13:55.576Z,5.13
2023-04-27T02:16:25.199Z,5.87
2023-04-27T02:18:54.535Z,5.50
2023-04-27T02:21:22.825Z,5.60
2023-04-27T02:23:51.046Z,5.60
2023-04-27T02:26:20.372Z,5.50
2023-04-27T02:28:48.578Z,6.00
2023-04-27T02:31:17.626Z,6.10
2023-04-27T02:33:47.690Z,6.03
2023-04-27T02:36:15.914Z,5.97
2023-04-27T02:38:44.061Z,5.93
2023-04-27T02:41:12.252Z,5.53
2023-04-27T02:43:40.469Z,5.60
2023-04-27T02:46:08.688Z,5.67
2023-04-27T02:48:36.912Z,5.93
2023-04-27T02:51:07.024Z,6.30
2023-04-27T02:53:35.220Z,5.17
2023-04-27T02:56:03.371Z,5.20
2023-04-27T02:58:31.892Z,5.50
2023-04-27T03:01:00.143Z,5.53
2023-04-27T03:03:28.761Z,5.47
2023-04-27T03:05:57.126Z,5.47
2023-04-27T03:08:26.663Z,6.10
2023-04-27T03:10:54.776Z,5.60
2023-04-27T03:13:22.888Z,5.70
2023-04-27T03:15:51.143Z,5.50
2023-04-27T03:18:19.296Z,5.83
2023-04-27T03:20:47.467Z,5.80
2023-04-27T03:23:15.642Z,5.97
2023-04-27T03:25:45.102Z,5.77
2023-04-27T03:28:13.310Z,5.60
2023-04-27T03:30:42.021Z,5.70
2023-04-27T03:33:10.368Z,5.00
2023-04-27T03:35:38.598Z,5.17
2023-04-27T03:38:06.815Z,4.97
2023-04-27T03:40:34.996Z,5.20
2023-04-27T03:43:04.507Z,5.90
2023-04-27T03:45:32.679Z,5.07
2023-04-27T03:48:00.847Z,4.67
2023-04-27T03:50:30.204Z,5.30
2023-04-27T03:52:58.567Z,5.30
2023-04-27T03:55:26.890Z,5.30
2023-04-27T03:57:55.387Z,4.90
2023-04-27T04:00:25.172Z,4.97
2023-04-27T04:02:53.647Z,5.07
2023-04-27T04:05:22.219Z,5.20
2023-04-27T04:07:50.502Z,4.20
2023-04-27T04:10:18.788Z,4.77
2023-04-27T04:12:46.951Z,5.13
2023-04-27T04:15:15.082Z,4.77
2023-04-27T04:17:44.553Z,5.00
2023-04-27T04:20:13.549Z,4.80
2023-04-27T04:22:41.760Z,5.07
2023-04-27T04:25:10.033Z,4.80
2023-04-27T04:27:38.158Z,5.00
2023-04-27T04:30:07.110Z,5.57
2023-04-27T04:32:37.680Z,5.40
2023-04-27T04:35:07.836Z,5.47
2023-04-27T04:37:36.400Z,5.50
2023-04-27T04:40:11.264Z,5.13
2023-04-27T04:42:39.497Z,5.37
2023-04-27T04:45:08.358Z,5.57
2023-04-27T04:47:36.653Z,5.83
2023-04-27T04:50:04.909Z,5.40
2023-04-27T04:52:34.393Z,5.37
2023-04-27T04:55:02.845Z,5.33
2023-04-27T04:57:31.906Z,5.70
2023-04-27T05:00:00.263Z,5.67
2023-04-27T05:02:28.678Z,6.33
2023-04-27T05:04:57.721Z,6.30
2023-04-27T05:07:26.502Z,5.63
2023-04-27T05:09:55.950Z,5.83
2023-04-27T05:12:24.141Z,6.20
2023-04-27T05:14:52.855Z,5.90
2023-04-27T05:17:21.045Z,5.70
2023-04-27T05:19:49.323Z,5.90
2023-04-27T05:22:17.557Z,5.70
2023-04-27T05:24:45.750Z,5.70
2023-04-27T05:27:15.623Z,5.97
2023-04-27T05:29:44.328Z,5.90
2023-04-27T05:32:12.479Z,5.87
2023-04-27T05:34:41.153Z,5.40
2023-04-27T05:37:09.307Z,5.57
2023-04-27T05:39:37.466Z,5.60
2023-04-27T05:42:05.808Z,5.23
2023-04-27T05:44:35.647Z,5.60
2023-04-27T05:47:03.779Z,5.47
2023-04-27T05:49:31.938Z,5.03
2023-04-27T05:52:00.772Z,5.23
2023-04-27T05:54:28.969Z,5.77
2023-04-27T05:56:57.149Z,5.27
2023-04-27T05:59:25.399Z,4.80
2023-04-27T06:01:54.881Z,5.17
2023-04-27T06:04:23.290Z,5.60
2023-04-27T06:06:51.584Z,5.53
2023-04-27T06:09:19.801Z,5.53
2023-04-27T06:11:47.974Z,5.53
2023-04-27T06:14:16.259Z,5.73
2023-04-27T06:16:44.482Z,5.17
2023-04-27T06:19:14.284Z,5.17
2023-04-27T06:21:42.887Z,5.07
2023-04-27T06:24:11.101Z,5.17
2023-04-27T06:26:39.306Z,5.20
2023-04-27T06:29:08.296Z,4.60
2023-04-27T06:31:36.740Z,5.27
2023-04-27T06:34:04.941Z,4.87
2023-04-27T06:36:34.429Z,4.97
2023-04-27T06:39:02.650Z,4.87
2023-04-27T06:41:30.923Z,4.60
2023-04-27T06:43:59.394Z,5.00
2023-04-27T06:46:27.714Z,4.50
2023-04-27T06:48:55.978Z,4.60
2023-04-27T06:51:24.176Z,4.53
2023-04-27T06:53:56.367Z,5.07
2023-04-27T06:56:24.559Z,4.57
2023-04-27T06:58:52.761Z,4.40
2023-04-27T07:01:21.024Z,4.57
2023-04-27T07:03:49.460Z,4.40
2023-04-27T07:06:17.851Z,4.47
2023-04-27T07:08:46.115Z,4.20
2023-04-27T07:11:16.449Z,4.53
2023-04-27T07:13:44.631Z,3.90
2023-04-27T07:16:12.937Z,4.27
2023-04-27T07:18:43.277Z,4.23
2023-04-27T07:21:11.945Z,4.53
2023-04-27T07:23:41.093Z,4.30
2023-04-27T07:26:09.985Z,4.23
2023-04-27T07:28:39.520Z,4.30
2023-04-27T07:31:08.415Z,3.70
2023-04-27T07:33:36.896Z,4.07
2023-04-27T07:36:05.248Z,4.40
2023-04-27T07:38:33.439Z,4.00
2023-04-27T07:41:03.043Z,3.63
2023-04-27T07:43:32.053Z,3.53
2023-04-27T07:46:01.687Z,3.73
2023-04-27T07:48:30.751Z,3.50
2023-04-27T07:50:59.150Z,3.60
2023-04-27T07:53:27.699Z,3.00
2023-04-27T07:55:56.030Z,3.20
2023-04-27T07:58:24.155Z,2.70
2023-04-27T08:00:52.631Z,3.23
2023-04-27T08:03:22.962Z,3.60
2023-04-27T08:05:51.637Z,3.00
2023-04-27T08:08:19.949Z,3.00
2023-04-27T08:10:48.181Z,3.13
2023-04-27T08:13:16.574Z,2.80
2023-04-27T08:15:44.740Z,2.30
2023-04-27T08:18:12.935Z,2.60
2023-04-27T08:20:42.416Z,2.33
2023-04-27T08:23:10.685Z,2.90
2023-04-27T08:25:38.825Z,2.70
2023-04-27T08:28:06.991Z,2.40
2023-04-27T08:30:35.200Z,3.00
2023-04-27T08:33:03.373Z,2.87
2023-04-27T08:35:31.550Z,3.03
2023-04-27T08:38:01.341Z,2.93
2023-04-27T08:40:29.560Z,3.07
2023-04-27T08:42:58.324Z,2.63
2023-04-27T08:45:26.845Z,2.63
2023-04-27T08:47:55.621Z,2.40
2023-04-27T08:50:24.476Z,2.60
2023-04-27T08:52:53.127Z,2.53
2023-04-27T08:55:22.991Z,2.50
2023-04-27T08:57:57.638Z,3.00
2023-04-27T09:00:26.507Z,2.90
2023-04-27T09:02:55.060Z,2.87
2023-04-27T09:05:24.553Z,2.80
2023-04-27T09:07:59.360Z,2.90
2023-04-27T09:10:30.005Z,2.73
2023-04-27T09:12:59.462Z,2.60
2023-04-27T09:15:28.354Z,2.73
2023-04-27T09:17:57.293Z,2.77
2023-04-27T09:20:27.045Z,3.10
2023-04-27T09:22:58.104Z,3.30
2023-04-27T09:25:29.071Z,2.70
2023-04-27T09:27:58.108Z,3.20
2023-04-27T09:30:26.487Z,3.43
2023-04-27T09:32:56.049Z,3.17
2023-04-27T09:35:25.607Z,3.27
2023-04-27T09:37:54.641Z,2.97
2023-04-27T09:40:26.438Z,3.30
2023-04-27T09:42:56.913Z,3.30
2023-04-27T09:45:25.516Z,3.30
2023-04-27T09:47:54.017Z,4.07
2023-04-27T09:50:22.770Z,3.10
2023-04-27T09:52:51.184Z,3.33
2023-04-27T09:55:20.745Z,3.27
2023-04-27T09:57:53.932Z,3.10
2023-04-27T10:00:27.422Z,3.50
2023-04-27T10:03:00.603Z,3.50
2023-04-27T10:05:35.950Z,3.87
2023-04-27T10:08:06.079Z,3.10
2023-04-27T10:10:43.793Z,3.27
2023-04-27T10:13:22.735Z,3.57
2023-04-27T10:15:52.581Z,3.60
2023-04-27T10:18:27.703Z,3.33
2023-04-27T10:20:55.954Z,3.33
2023-04-27T10:23:25.007Z,3.63
2023-04-27T10:25:53.188Z,3.53
2023-04-27T10:28:21.820Z,3.77
2023-04-27T10:30:50.966Z,3.77
2023-04-27T10:33:25.052Z,3.80
2023-04-27T10:35:57.076Z,3.70
2023-04-27T10:38:29.256Z,3.50
2023-04-27T10:40:57.977Z,3.67
2023-04-27T10:43:27.305Z,3.57
2023-04-27T10:45:55.647Z,3.50
2023-04-27T10:48:25.164Z,3.80
2023-04-27T10:50:53.332Z,3.93
2023-04-27T10:53:21.520Z,3.90
2023-04-27T10:55:49.636Z,4.10
2023-04-27T10:58:26.692Z,3.63
2023-04-27T11:01:00.401Z,3.83
2023-04-27T11:03:30.768Z,3.90
2023-04-27T11:06:02.617Z,3.70
2023-04-27T11:08:32.649Z,3.83
2023-04-27T11:11:01.567Z,3.67
2023-04-27T11:13:30.954Z,3.47
2023-04-27T11:16:00.054Z,3.83
2023-04-27T11:18:31.539Z,3.70
2023-04-27T11:21:08.793Z,4.07
2023-04-27T11:23:38.464Z,4.20
2023-04-27T11:26:14.516Z,4.17
2023-04-27T11:28:42.722Z,3.87
2023-04-27T11:31:11.640Z,4.40
2023-04-27T11:33:41.356Z,4.30
2023-04-27T11:36:17.729Z,4.10
2023-04-27T11:38:45.985Z,4.07
2023-04-27T11:41:14.262Z,4.20
2023-04-27T11:43:43.145Z,4.17
2023-04-27T11:46:12.263Z,4.03
2023-04-27T11:48:42.257Z,4.30
2023-04-27T11:51:12.650Z,4.90
2023-04-27T11:53:42.322Z,4.40
2023-04-27T11:56:12.088Z,4.60
2023-04-27T11:58:40.785Z,4.03
2023-04-27T12:01:09.455Z,4.30
2023-04-27T12:03:37.897Z,4.30
2023-04-27T12:06:27.249Z,4.30
2023-04-27T12:08:56.929Z,4.10
2023-04-27T12:11:25.510Z,4.47
2023-04-27T12:13:53.734Z,4.43
2023-04-27T12:16:22.838Z,5.07
2023-04-27T12:18:51.635Z,4.20
2023-04-27T12:21:21.333Z,4.40
2023-04-27T12:23:49.481Z,4.00
2023-04-27T12:26:18.319Z,4.60
2023-04-27T12:28:46.483Z,3.97
2023-04-27T12:31:16.298Z,4.60
2023-04-27T12:33:44.588Z,4.20
2023-04-27T12:36:12.730Z,4.40
2023-04-27T12:38:42.369Z,4.80
2023-04-27T12:41:10.684Z,4.73
2023-04-27T12:43:41.058Z,4.80
2023-04-27T12:46:09.612Z,4.37
2023-04-27T12:48:37.917Z,4.70
2023-04-27T12:51:06.700Z,4.50
2023-04-27T12:53:34.953Z,4.80
2023-04-27T12:56:05.381Z,4.73
2023-04-27T12:58:33.694Z,4.90
2023-04-27T13:01:01.919Z,4.30
2023-04-27T13:03:30.206Z,4.33
2023-04-27T13:05:58.508Z,4.50
2023-04-27T13:08:26.732Z,4.70
2023-04-27T13:10:54.878Z,4.67
2023-04-27T13:13:24.388Z,4.43
2023-04-27T13:15:52.537Z,4.70
2023-04-27T13:18:20.836Z,5.47
2023-04-27T13:20:50.179Z,4.73
2023-04-27T13:23:18.513Z,5.47
2023-04-27T13:25:46.787Z,5.20
2023-04-27T13:28:14.944Z,4.90
2023-04-27T13:30:44.493Z,5.23
2023-04-27T13:33:22.529Z,5.30
2023-04-27T13:35:51.947Z,4.40
2023-04-27T13:38:20.204Z,4.90
2023-04-27T13:40:48.490Z,5.30
2023-04-27T13:43:16.722Z,5.43
2023-04-27T13:45:46.254Z,5.47
2023-04-27T13:48:14.460Z,5.07
2023-04-27T13:50:42.658Z,5.17
2023-04-27T13:53:11.889Z,5.17
2023-04-27T13:55:40.138Z,5.67
2023-04-27T13:58:08.314Z,5.63
2023-04-27T14:00:37.369Z,4.97
2023-04-27T14:03:08.942Z,5.60
2023-04-27T14:05:37.354Z,5.63
2023-04-27T14:08:05.627Z,5.67
2023-04-27T14:10:33.778Z,5.73
2023-04-27T14:13:02.011Z,5.40
2023-04-27T14:15:30.238Z,5.60
2023-04-27T14:17:58.470Z,4.83
2023-04-27T14:20:28.280Z,5.33
2023-04-27T14:22:58.373Z,5.00
2023-04-27T14:25:27.294Z,5.40
2023-04-27T14:27:55.480Z,5.50
2023-04-27T14:30:23.817Z,5.03
2023-04-27T14:32:52.015Z,5.50
2023-04-27T14:35:21.484Z,5.03
2023-04-27T14:37:51.006Z,5.07
2023-04-27T14:40:19.465Z,5.10
2023-04-27T14:42:47.928Z,4.70
2023-04-27T14:45:18.863Z,4.30
2023-04-27T14:47:47.106Z,4.77
2023-04-27T14:50:15.287Z,4.67
2023-04-27T14:52:43.459Z,4.70
2023-04-27T14:55:15.196Z,5.23
2023-04-27T14:57:43.311Z,4.50
2023-04-27T15:00:13.169Z,4.60
2023-04-27T15:02:41.467Z,4.40
2023-04-27T15:05:10.200Z,4.63
2023-04-27T15:07:38.348Z,4.43
2023-04-27T15:10:07.069Z,4.40
2023-04-27T15:12:36.753Z,5.10
2023-04-27T15:15:07.344Z,4.60
2023-04-27T15:17:36.964Z,4.50
2023-04-27T15:20:06.229Z,4.57
2023-04-27T15:22:34.422Z,4.30
2023-04-27T15:25:02.582Z,4.60
2023-04-27T15:27:30.864Z,4.97
2023-04-27T15:30:03.641Z,5.00
2023-04-27T15:32:32.135Z,4.57
2023-04-27T15:35:00.493Z,4.37
2023-04-27T15:37:29.688Z,4.70
2023-04-27T15:39:57.960Z,4.70
2023-04-27T15:42:26.184Z,4.73
2023-04-27T15:44:54.304Z,5.00
2023-04-27T15:47:23.837Z,5.30
2023-04-27T15:49:57.603Z,5.20
2023-04-27T15:52:27.104Z,4.80
2023-04-27T15:54:57.215Z,5.00
2023-04-27T15:57:25.430Z,5.20
2023-04-27T15:59:53.606Z,5.27
2023-04-27T16:02:21.903Z,4.90
2023-04-27T16:04:51.486Z,4.57
2023-04-27T16:07:19.715Z,5.90
2023-04-27T16:09:47.959Z,5.93
2023-04-27T16:12:16.454Z,5.40
2023-04-27T16:14:44.570Z,5.57
2023-04-27T16:17:12.926Z,5.67
2023-04-27T16:19:41.225Z,5.23
2023-04-27T16:22:10.804Z,5.50
2023-04-27T16:24:38.991Z,5.83
2023-04-27T16:27:07.238Z,5.90
2023-04-27T16:29:35.488Z,5.80
2023-04-27T16:32:03.705Z,6.03
2023-04-27T16:34:31.988Z,6.20
2023-04-27T16:37:00.235Z,5.90
2023-04-27T16:39:29.758Z,5.67
2023-04-27T16:41:58.187Z,5.00
2023-04-27T16:44:26.815Z,5.13
2023-04-27T16:46:55.038Z,4.90
2023-04-27T16:49:23.184Z,5.07
2023-04-27T16:51:52.567Z,4.63
2023-04-27T16:54:20.979Z,5.53
2023-04-27T16:56:52.257Z,5.23
2023-04-27T16:59:21.545Z,5.67
2023-04-27T17:01:49.740Z,5.50
2023-04-27T17:04:18.047Z,6.13
2023-04-27T17:06:48.270Z,5.50
2023-04-27T17:09:16.619Z,5.83
2023-04-27T17:11:45.101Z,6.37
2023-04-27T17:14:14.917Z,5.70
2023-04-27T17:16:43.050Z,5.70
2023-04-27T17:19:12.008Z,6.17
2023-04-27T17:21:40.706Z,5.30
2023-04-27T17:24:10.351Z,5.73
2023-04-27T17:26:39.035Z,5.40
2023-04-27T17:29:07.186Z,5.53
2023-04-27T17:31:36.697Z,5.33
2023-04-27T17:34:04.880Z,5.50
2023-04-27T17:36:33.173Z,5.60
2023-04-27T17:39:01.689Z,5.60
2023-04-27T17:41:30.129Z,5.27
2023-04-27T17:43:58.916Z,5.27
2023-04-27T17:46:27.139Z,5.80
2023-04-27T17:48:56.705Z,5.50
2023-04-27T17:51:24.940Z,5.40
2023-04-27T17:53:53.096Z,5.80
2023-04-27T17:56:21.232Z,5.33
2023-04-27T17:58:49.915Z,5.33
2023-04-27T18:01:18.084Z,5.33
2023-04-27T18:03:46.524Z,4.93
2023-04-27T18:06:16.118Z,5.20
2023-04-27T18:08:44.277Z,5.20
2023-04-27T18:11:12.526Z,4.73
2023-04-27T18:13:40.664Z,4.73
2023-04-27T18:16:09.235Z,4.80
2023-04-27T18:18:37.485Z,5.03
2023-04-27T18:21:06.648Z,4.67
2023-04-27T18:23:37.868Z,5.03
2023-04-27T18:26:06.378Z,5.53
2023-04-27T18:28:34.683Z,4.43
2023-04-27T18:31:02.891Z,4.73
2023-04-27T18:33:31.057Z,5.10
2023-04-27T18:35:59.242Z,5.10
2023-04-27T18:38:27.362Z,5.07
2023-04-27T18:40:56.919Z,4.60
2023-04-27T18:43:25.592Z,4.83
2023-04-27T18:45:53.853Z,4.80
2023-04-27T18:48:21.966Z,4.80
2023-04-27T18:50:50.456Z,4.57
2023-04-27T18:53:18.614Z,4.77
2023-04-27T18:55:46.797Z,4.93
2023-04-27T18:58:16.347Z,4.90
2023-04-27T19:00:44.482Z,5.27
2023-04-27T19:03:12.805Z,4.50
2023-04-27T19:05:43.067Z,4.67
2023-04-27T19:08:11.683Z,4.73
2023-04-27T19:10:41.163Z,5.17
2023-04-27T19:13:09.401Z,4.50
2023-04-27T19:15:38.981Z,4.70
2023-04-27T19:18:11.123Z,4.60
2023-04-27T19:20:39.936Z,4.90
2023-04-27T19:23:09.411Z,5.17
2023-04-27T19:25:37.778Z,4.40
2023-04-27T19:28:06.860Z,5.83
2023-04-27T19:30:35.068Z,4.50
2023-04-27T19:33:04.783Z,4.80
2023-04-27T19:35:32.941Z,4.40
2023-04-27T19:38:01.300Z,4.40
2023-04-27T19:40:29.505Z,4.40
2023-04-27T19:42:57.711Z,4.07
2023-04-27T19:45:25.891Z,4.80
2023-04-27T19:47:54.773Z,4.63
2023-04-27T19:50:24.419Z,5.07
2023-04-27T19:52:52.544Z,4.27
2023-04-27T19:55:20.720Z,4.43
2023-04-27T19:57:48.957Z,4.83
2023-04-27T20:00:17.409Z,4.50
2023-04-27T20:02:45.704Z,4.90
2023-04-27T20:05:14.211Z,4.67
2023-04-27T20:07:44.115Z,4.63
2023-04-27T20:10:12.343Z,4.50
2023-04-27T20:12:55.439Z,5.47
2023-04-27T20:15:25.283Z,4.80
2023-04-27T20:17:53.537Z,4.57
2023-04-27T20:20:21.908Z,5.00
2023-04-27T20:22:51.467Z,4.90
2023-04-27T20:25:20.228Z,4.80
2023-04-27T20:27:48.409Z,5.93
2023-04-27T20:30:16.600Z,4.90
2023-04-27T20:32:46.434Z,4.67
2023-04-27T20:35:14.729Z,5.37
2023-04-27T20:37:43.417Z,4.90
2023-04-27T20:40:17.380Z,4.70
2023-04-27T20:42:45.770Z,4.70
2023-04-27T20:45:14.093Z,4.83
2023-04-27T20:47:42.584Z,4.93
2023-04-27T20:50:11.154Z,4.80
2023-04-27T20:52:39.427Z,4.57
2023-04-27T20:55:08.017Z,4.93
2023-04-27T20:57:37.573Z,4.67
2023-04-27T21:00:06.119Z,4.63
2023-04-27T21:02:34.300Z,4.83
2023-04-27T21:05:02.791Z,4.97
2023-04-27T21:07:31.272Z,5.40
2023-04-27T21:10:05.886Z,4.83
2023-04-27T21:12:34.506Z,4.87
2023-04-27T21:15:04.035Z,4.80
2023-04-27T21:17:32.451Z,4.63
2023-04-27T21:20:00.658Z,5.17
2023-04-27T21:22:28.841Z,4.60
2023-04-27T21:24:57.049Z,4.90
2023-04-27T21:27:25.298Z,5.10
2023-04-27T21:29:53.511Z,4.60
2023-04-27T21:32:23.145Z,4.73
2023-04-27T21:34:51.703Z,4.90
2023-04-27T21:37:19.907Z,5.00
2023-04-27T21:39:48.131Z,4.50
2023-04-27T21:42:16.488Z,4.83
2023-04-27T21:44:44.599Z,4.93
2023-04-27T21:47:12.784Z,5.17
2023-04-27T21:49:42.349Z,4.80
2023-04-27T21:52:11.142Z,4.90
2023-04-27T21:54:39.319Z,4.83
2023-04-27T21:57:07.476Z,4.77
2023-04-27T21:59:35.651Z,4.67
2023-04-27T22:02:06.534Z,5.20
2023-04-27T22:04:35.834Z,4.90
2023-04-27T22:07:05.499Z,5.10
2023-04-27T22:09:33.755Z,5.30
2023-04-27T22:12:02.909Z,5.00
2023-04-27T22:14:31.775Z,5.23
2023-04-27T22:17:00.686Z,4.83
2023-04-27T22:19:29.058Z,5.53
2023-04-27T22:21:57.282Z,4.97
2023-04-27T22:24:26.823Z,5.60
2023-04-27T22:26:54.958Z,5.20
2023-04-27T22:29:23.121Z,4.90
2023-04-27T22:31:52.083Z,5.23
2023-04-27T22:34:20.336Z,5.50
2023-04-27T22:36:48.497Z,5.67
2023-04-27T22:39:17.743Z,4.70
2023-04-27T22:41:47.207Z,5.20
2023-04-27T22:44:15.703Z,5.00
2023-04-27T22:46:44.503Z,5.33
2023-04-27T22:49:12.702Z,5.23
2023-04-27T22:51:40.863Z,5.53
2023-04-27T22:54:09.077Z,5.40
2023-04-27T22:56:37.197Z,5.00
2023-04-27T22:59:06.929Z,5.10
2023-04-27T23:01:35.125Z,5.60
2023-04-27T23:04:03.415Z,5.30
2023-04-27T23:06:31.652Z,5.50
2023-04-27T23:08:59.865Z,5.73
2023-04-27T23:11:28.996Z,5.20
2023-04-27T23:13:57.398Z,5.97
2023-04-27T23:16:27.270Z,5.80
2023-04-27T23:18:55.478Z,5.90
2023-04-27T23:21:23.641Z,5.17
2023-04-27T23:23:51.774Z,5.10
2023-04-27T23:26:19.961Z,5.73
2023-04-27T23:28:48.215Z,6.00
2023-04-27T23:31:16.426Z,5.50
2023-04-27T23:33:45.944Z,5.60
2023-04-27T23:36:14.120Z,5.87
2023-04-27T23:38:42.314Z,6.37
2023-04-27T23:41:10.501Z,5.80
2023-04-27T23:43:38.632Z,6.07
2023-04-27T23:46:07.196Z,5.97
2023-04-27T23:48:36.442Z,6.27
2023-04-27T23:51:06.386Z,6.07
2023-04-27T23:53:34.542Z,6.13
2023-04-27T23:56:02.726Z,6.83
2023-04-27T23:58:30.902Z,5.70
